Aktualne dane pomiarowe

Uwaga, wersja testowa! Automatyczne pobieranie danych za pomocą narzędzi lub skryptów to umożliwiających jest zabronione.

Dane meteo z obszaru Polski uzyskane na podstawie depesz SYNOP pobieranych co godzinę z NWS. Najedź myszką na symbol przedstawiony w tabeli, aby uzyskać informacje co do jego znaczenia. Prosimy pamiętać, że to testowa wersja strony, która jeszcze nie jest ukończona. Stworzono również jest krótki FAQ dotyczący korzystania z tej podstrony Anomalie temperatury w chwili obecnej odniesione są do okresu referencyjnego 1951-2016. Okres ten będzie później zmieniony na 1981-2010. Kliknij ikonę aby pobrać plik CSV. Kliknij ikonę aby wygenerować mapę synoptyczną dla danego terminu.

Wybierz Datę:    

        

Kraków-Balice (12566)

Dane terminowe dla wybranej stacji. Kliknij datę, aby otrzymać dane z tego terminu dla wszystkich stacji.

TemperaturaZachmurzenieWiatrCiśnienieOpadyPogoda
 Data t td wb tx tn tg rh  Nt Nl Cl Cm Ch ws wd g1 g2 wx mslp ppp ch 24h 12h t ww ww w1 w2  
2019-07-12 23:00:00 16.5 11.6 13.3--- 7340.0wx-wx0---01010.8 982.4 -0.1---------
2019-07-12 22:00:00 16.6 11.5 13.3--- 7240.0wx-wx1wx---1010.9 982.5 0.2---------
2019-07-12 21:00:00 17.1 11.6 13.6--- 7040.0wx-wx2wx--21010.8 982.5 0.5---------
2019-07-12 20:00:00 18.2 11.0 13.7--- 6350.0wx-wx2wx--21010.7 982.5 0.6---------
2019-07-12 19:00:00 18.4 10.7 13.7--- 6150.0wx-wx2wx--21010.5 982.3 0.4---------
2019-07-12 18:00:00 19.4 10.4 14.0 25.3 13.1- 5650.0wx-wx3wx-1331010.1 982.0 0.1- 0.012------
2019-07-12 17:00:00 20.3 9.5 13.9--- 5050.0wx-wxwx4wx--41009.9 981.9 0.3---------
2019-07-12 16:00:00 21.1 9.7 14.4--- 4850.0wxwxwxwxwx5wx--51009.8 981.9 -0.1---------
2019-07-12 15:00:00 21.9 9.1 14.5--- 4450.0wxwxwxwxwx8wx-1381009.7 981.9 -0.3---------
2019-07-12 14:00:00 24.4 4.7 13.8--- 2850.0wxwxwxwxwx3wx--31009.2 981.6 -1.0---------
2019-07-12 13:00:00 24.2 4.5 13.6--- 2850.0wxwxwxwxwx2wx--21009.6 982.0 -1.0---------
2019-07-12 12:00:00 23.6 5.9 13.9--- 3250.0wxwxwxwxwx2wx--21009.9 982.2 -1.4- 0.06------
2019-07-12 11:00:00 23.9 5.3 13.8--- 3050.0wxwxwxwx3wx--31010.3 982.6 -1.3---------
2019-07-12 10:00:00 23.8 5.2 13.7--- 3050.0wxwxwxwxwx3wx--31010.7 983.0 -0.9---------
2019-07-12 09:00:00 22.6 6.4 13.6--- 3540.0wxwxwxwxwx2wx--21011.4 983.6 -0.6---------
2019-07-12 08:00:00 19.9 8.6 13.4--- 4840.0wx-wxwx2wx--21012.0 983.9 -0.2---------
2019-07-12 07:00:00 17.3 8.7 12.2--- 5740.0wx-wxwx1wx--11012.2 983.9 -0.3---------
2019-07-12 06:00:00 13.1 8.2 10.1 18.7 7.0 4 7230.0wx-wx1wx--11013.0 984.2 0.1 1.8 0.012------
2019-07-12 05:00:00 9.6 7.9 8.4--- 8930.0wx-wx0----1013.2 984.1 0.1---------
2019-07-12 04:00:00 7.7 6.2 6.7--- 9030.0wx-wx0---01013.5 984.2 0.0---------
2019-07-12 03:00:00 7.1 5.7 6.1--- 9130.0wx-wx0---01013.5 984.1 -0.4---------
2019-07-12 02:00:00 7.5 6.1 6.5--- 9140.0wx-wx1wx--11013.3 984.0 -0.8---------
2019-07-12 01:00:00 8.0 6.1 6.7--- 8840.0wx-0---01013.5 984.2 -0.7---------
2019-07-12 00:00:00 8.3 6.3 7.0--- 8740.0wx-0---01013.8 984.5 -0.2- 0.06------
2019-07-11 23:00:00 9.2 6.6 7.5--- 8440.0wx-0---01014.0 984.8 0.1---------
2019-07-11 22:00:00 9.9 6.6 7.8--- 8040.0wx-0---01014.0 984.9 0.5---------
2019-07-11 21:00:00 11.2 7.5 8.9--- 7840.0wx-1wx--11013.7 984.7 0.7---------
2019-07-11 20:00:00 12.1 7.2 9.1--- 7240.0wx-2wx--21013.6 984.7 0.9---------
2019-07-11 19:00:00 15.7 7.5 10.9--- 5850.0wx-wx1wx--11012.9 984.4 0.6---------
2019-07-11 18:00:00 18.7 6.2 11.8 20.5 13.3- 4450.0wx-2wx-1121012.2 984.0 0.2- 2.012------
2019-07-11 17:00:00 19.6 5.3 11.9--- 3950.0wxwxwxwx4wx--41011.9 983.8 0.1---------
2019-07-11 16:00:00 19.5 5.2 11.8--- 3950.0wxwxwx3wx--31011.9 983.8 0.0---------
2019-07-11 15:00:00 19.7 5.0 11.8--- 3850.0wxwxwx4wx-1141011.9 983.8 0.0---------
2019-07-11 14:00:00 19.7 5.3 11.9--- 3950.0wxwxwx6wx111161011.8 983.7 -0.1---------
2019-07-11 13:00:00 18.8 5.3 11.5--- 4150.0wxwxwx5wx--51012.0 983.8 -0.1---------
2019-07-11 12:00:00 18.9 6.7 12.1--- 4550.0wxwxwx6wx-1161012.0 983.8 -0.1- 2.06wx-w1w2--
2019-07-11 11:00:00 17.6 8.4 12.2--- 5550.0wxwxwx6wx-1161012.1 983.8 -0.5---wx---
2019-07-11 10:00:00 16.4 12.0 13.5--- 7540.0wxwxwx5wx--51012.3 983.9 -0.4---wx---
2019-07-11 09:00:00 14.2 11.7 12.5--- 858.0wxwxwx4wx--41012.6 983.9 -0.5---wx-w1w2--
2019-07-11 08:00:00 15.2 10.2 12.0--- 7230.0wxwxwxwx7wx--71012.9 984.3 0.0---wx---
2019-07-11 07:00:00 14.2 11.5 12.4--- 8425.0wxwxwxwx5wx---1013.0 984.3 -0.1---------
2019-07-11 06:00:00 13.3 11.5 12.0 16.9 11.4 11 8920.0wxwxwx5wx--51013.2 984.4 -0.2 0.1 0.112wx-w1--
2019-07-11 05:00:00 12.6 10.7 11.3--- 8820.0wxwxwxwx3wx--31013.1 984.3 0.0---wx---
2019-07-11 04:00:00 12.2 9.9 10.7--- 8620.0wxwxwxwx2wx--21013.3 984.4 -0.4---wx-w1--
2019-07-11 03:00:00 12.5 9.5 10.5--- 8240.0wxwxwxwx5wx--51013.4 984.6 -0.7---------
2019-07-11 02:00:00 11.7 9.3 10.1--- 8540.0wx-wx3wx--31013.2 984.3 -1.3---------
2019-07-11 01:00:00 12.4 9.2 10.3--- 8140.0wxwxwx3wx--31013.7 984.8 -0.9---------
2019-07-11 00:00:00 12.4 9.2 10.3--- 8140.0wxwxwx3wx--31014.2 985.3 -0.6- 0.06------
1.1 ms

 

Print Friendly, PDF & Email